Time;durP1;ratioP1;P1;durP2;ratioP2;P2;SDS_P1;SDS_P2;PMS_P1;PMS_P2;Temp;Humidity;BMP_temperature;BMP_pressure;BME280_temperature;BME280_humidity;BME280_pressure;Samples;Min_cycle;Max_cycle;Signal;HPM_P1;HPM_P2
2022/04/25 00:00:07;;;;;;;0.40;0.20;;;;;;;14.90;100.00;94804.50;5133871;27;20469;-51
2022/04/25 00:02:37;;;;;;;0.40;0.30;;;;;;;14.71;100.00;94799.38;5134220;27;20414;-51
2022/04/25 00:05:07;;;;;;;0.40;0.30;;;;;;;14.41;100.00;94792.16;5133852;27;20443;-51
2022/04/25 00:07:35;;;;;;;0.50;0.30;;;;;;;14.17;100.00;94797.78;5134082;27;20506;-50
2022/04/25 00:10:04;;;;;;;0.30;0.20;;;;;;;14.36;100.00;94787.75;5134050;27;20437;-50
2022/04/25 00:12:33;;;;;;;0.47;0.40;;;;;;;14.71;100.00;94795.91;5133937;27;20488;-50
2022/04/25 00:15:01;;;;;;;0.40;0.20;;;;;;;14.61;100.00;94794.31;5133261;27;20455;-50
2022/04/25 00:17:30;;;;;;;0.40;0.30;;;;;;;14.62;100.00;94786.00;5133748;27;20837;-50
2022/04/25 00:19:59;;;;;;;1.03;1.03;;;;;;;14.84;100.00;94790.50;5133745;27;20937;-50
2022/04/25 00:22:28;;;;;;;0.33;0.20;;;;;;;14.33;100.00;94793.69;5133345;27;20513;-50
2022/04/25 00:24:56;;;;;;;0.40;0.40;;;;;;;14.53;100.00;94790.50;5133476;27;20943;-50
2022/04/25 00:27:28;;;;;;;0.37;0.20;;;;;;;14.74;100.00;94792.66;5133385;27;20950;-50
2022/04/25 00:29:57;;;;;;;0.40;0.30;;;;;;;14.70;100.00;94792.47;5133430;27;20462;-50
2022/04/25 00:32:25;;;;;;;0.30;0.20;;;;;;;14.89;100.00;94798.38;5133587;27;20438;-50
2022/04/25 00:34:53;;;;;;;0.40;0.40;;;;;;;14.43;100.00;94789.97;5133664;27;20479;-50
2022/04/25 00:37:23;;;;;;;0.77;0.77;;;;;;;14.34;100.00;94802.50;5133148;27;20505;-50
2022/04/25 00:39:52;;;;;;;0.40;0.20;;;;;;;14.00;100.00;94798.47;5133576;27;20549;-50
2022/04/25 00:42:21;;;;;;;1.13;1.13;;;;;;;14.22;100.00;94786.25;5133265;27;20471;-50
2022/04/25 00:44:49;;;;;;;0.40;0.30;;;;;;;14.52;100.00;94788.16;5132151;27;20493;-50
2022/04/25 00:47:19;;;;;;;5.50;0.80;;;;;;;14.62;100.00;94802.00;5133144;27;20506;-50
2022/04/25 00:49:47;;;;;;;0.40;0.40;;;;;;;14.62;100.00;94796.66;5133031;27;20876;-50
2022/04/25 00:52:16;;;;;;;0.40;0.20;;;;;;;14.51;100.00;94803.38;5133231;27;20522;-50
2022/04/25 00:54:46;;;;;;;0.50;0.50;;;;;;;14.52;100.00;94796.16;5133141;27;20502;-50
2022/04/25 00:57:16;;;;;;;0.50;0.40;;;;;;;14.57;100.00;94790.69;5132534;27;20501;-50
2022/04/25 00:59:46;;;;;;;0.37;0.30;;;;;;;14.28;100.00;94785.00;5132771;27;20515;-50
2022/04/25 01:02:14;;;;;;;0.30;0.20;;;;;;;14.41;100.00;94789.50;5132860;27;20507;-50
2022/04/25 01:04:43;;;;;;;0.40;0.30;;;;;;;13.55;100.00;94785.41;5132828;27;20434;-50
2022/04/25 01:07:12;;;;;;;0.40;0.30;;;;;;;13.83;100.00;94795.69;5131883;27;20924;-53
2022/04/25 01:09:40;;;;;;;1.33;1.23;;;;;;;14.13;100.00;94796.84;5132816;27;20505;-50
2022/04/25 01:12:10;;;;;;;0.80;0.70;;;;;;;14.28;100.00;94793.78;5132817;27;20513;-51
2022/04/25 01:14:39;;;;;;;0.40;0.30;;;;;;;14.25;100.00;94794.41;5132778;27;20488;-50
2022/04/25 01:17:08;;;;;;;0.40;0.20;;;;;;;14.16;100.00;94800.75;5132626;27;20920;-50
2022/04/25 01:19:37;;;;;;;0.63;0.63;;;;;;;14.15;100.00;94785.84;5132954;28;20500;-50
2022/04/25 01:22:10;;;;;;;0.40;0.30;;;;;;;14.18;100.00;94802.03;5132474;28;20932;-50
2022/04/25 01:27:28;;;;;;;0.50;0.40;;;;;;;14.18;100.00;94780.72;5132484;28;20457;-50
2022/04/25 01:29:56;;;;;;;0.63;0.60;;;;;;;14.17;100.00;94789.00;5132206;28;20514;-50
2022/04/25 01:32:25;;;;;;;0.40;0.30;;;;;;;14.11;100.00;94782.25;5132578;28;20440;-50
2022/04/25 01:34:54;;;;;;;0.40;0.40;;;;;;;13.60;100.00;94794.06;5132749;28;20454;-50
2022/04/25 01:37:22;;;;;;;0.40;0.40;;;;;;;13.75;100.00;94785.75;5132516;28;20468;-50
2022/04/25 01:39:54;;;;;;;0.50;0.50;;;;;;;13.84;100.00;94778.59;5132411;28;20975;-50
2022/04/25 01:42:23;;;;;;;0.40;0.20;;;;;;;13.69;100.00;94765.63;5132520;28;20506;-50
2022/04/25 01:44:52;;;;;;;0.40;0.40;;;;;;;13.91;100.00;94791.50;5132296;28;20545;-51
2022/04/25 01:47:21;;;;;;;0.30;0.20;;;;;;;13.91;100.00;94784.28;5132450;28;20415;-50
2022/04/25 01:49:50;;;;;;;0.40;0.30;;;;;;;13.94;100.00;94778.34;5132436;28;20510;-50
2022/04/25 01:52:24;;;;;;;0.40;0.30;;;;;;;13.80;100.00;94779.50;5132798;28;20506;-50
2022/04/25 01:54:54;;;;;;;0.30;0.20;;;;;;;13.82;100.00;94786.09;5132378;28;20517;-50
2022/04/25 01:57:22;;;;;;;0.40;0.30;;;;;;;13.13;100.00;94680.16;5132492;28;20422;-50
2022/04/25 01:59:51;;;;;;;0.30;0.20;;;;;;;13.99;100.00;94782.75;5132231;28;20506;-50
2022/04/25 02:02:22;;;;;;;0.73;0.47;;;;;;;13.89;100.00;94775.00;5132630;28;20427;-50
2022/04/25 02:04:51;;;;;;;0.60;0.60;;;;;;;14.09;100.00;94782.53;5132010;28;20438;-51
2022/04/25 02:07:20;;;;;;;0.40;0.30;;;;;;;13.84;100.00;94778.59;5132586;28;20429;-50
2022/04/25 02:09:48;;;;;;;0.40;0.30;;;;;;;13.98;100.00;94775.88;5132563;28;20465;-50
2022/04/25 02:12:18;;;;;;;7.80;0.40;;;;;;;14.06;100.00;94779.69;5132515;28;20430;-50
2022/04/25 02:14:47;;;;;;;0.40;0.20;;;;;;;13.68;100.00;94718.00;5132227;28;20458;-50
2022/04/25 02:17:15;;;;;;;0.40;0.20;;;;;;;14.08;100.00;94780.16;5132201;28;20418;-50
2022/04/25 02:19:44;;;;;;;0.77;0.77;;;;;;;14.10;100.00;94791.31;5134991;27;20561;-50
2022/04/25 02:22:13;;;;;;;0.40;0.30;;;;;;;13.83;100.00;94749.59;5136225;27;20456;-50
2022/04/25 02:24:42;;;;;;;0.40;0.30;;;;;;;14.03;100.00;94775.75;5136113;27;20510;-50
2022/04/25 02:27:11;;;;;;;0.40;0.30;;;;;;;13.89;100.00;94783.81;5136228;27;20442;-50
2022/04/25 02:29:41;;;;;;;0.40;0.30;;;;;;;13.63;100.00;94779.38;5135643;27;20868;-50
2022/04/25 02:32:12;;;;;;;0.97;0.40;;;;;;;13.62;100.00;94788.44;5135836;27;20501;-50
2022/04/25 02:34:42;;;;;;;0.40;0.30;;;;;;;13.69;100.00;94786.13;5135953;27;20434;-50
2022/04/25 02:37:10;;;;;;;0.30;0.30;;;;;;;13.53;100.00;94784.94;5135964;27;20432;-50
2022/04/25 02:39:39;;;;;;;0.40;0.40;;;;;;;13.09;100.00;94781.06;5135837;27;20465;-50
2022/04/25 02:42:08;;;;;;;0.40;0.30;;;;;;;12.99;100.00;94764.47;5135817;27;20509;-50
2022/04/25 02:44:36;;;;;;;0.77;0.77;;;;;;;13.25;100.00;94776.22;5135302;27;20564;-50
2022/04/25 02:47:06;;;;;;;2.10;0.30;;;;;;;13.16;100.00;94778.78;5135747;27;20841;-51
2022/04/25 02:49:35;;;;;;;0.40;0.30;;;;;;;12.85;100.00;94771.69;5135623;27;20449;-50
2022/04/25 02:52:04;;;;;;;0.73;0.73;;;;;;;13.10;100.00;94774.66;5135287;27;20522;-50
2022/04/25 02:54:33;;;;;;;0.40;0.30;;;;;;;13.17;100.00;94774.25;5135546;27;20844;-51
2022/04/25 02:57:02;;;;;;;8.90;0.70;;;;;;;12.71;100.00;94719.28;5135183;27;20462;-51
2022/04/25 02:59:31;;;;;;;0.40;0.30;;;;;;;12.79;100.00;94772.88;5135349;27;20896;-50
2022/04/25 03:02:00;;;;;;;0.40;0.37;;;;;;;11.71;100.00;94622.91;5135434;27;20459;-50
2022/04/25 03:04:31;;;;;;;0.40;0.30;;;;;;;12.35;100.00;94768.09;5135055;27;21036;-50
2022/04/25 03:07:00;;;;;;;0.37;0.30;;;;;;;12.14;100.00;94770.34;5135206;27;20900;-51
2022/04/25 03:09:28;;;;;;;1.37;1.13;;;;;;;12.10;100.00;94769.31;5134993;27;20869;-50
2022/04/25 03:11:57;;;;;;;0.40;0.30;;;;;;;12.34;100.00;94763.88;5135171;27;20454;-50
2022/04/25 03:14:26;;;;;;;0.37;0.30;;;;;;;12.28;100.00;94765.81;5134829;27;20959;-50
2022/04/25 03:16:55;;;;;;;0.40;0.30;;;;;;;12.37;100.00;94755.31;5134808;27;20430;-50
2022/04/25 03:19:23;;;;;;;0.40;0.30;;;;;;;12.69;100.00;94747.25;5135039;27;20511;-50
2022/04/25 03:21:54;;;;;;;0.40;0.30;;;;;;;12.44;100.00;94748.53;5134394;27;20867;-50
2022/04/25 03:24:22;;;;;;;0.50;0.50;;;;;;;12.77;100.00;94760.63;5134631;27;20513;-50
2022/04/25 03:26:50;;;;;;;0.37;0.27;;;;;;;12.59;100.00;94758.09;5134596;27;20506;-50
2022/04/25 03:29:19;;;;;;;0.50;0.50;;;;;;;12.67;100.00;94757.41;5134256;27;20506;-50
2022/04/25 03:31:47;;;;;;;0.40;0.30;;;;;;;12.81;100.00;94755.53;5134076;27;20797;-50
2022/04/25 03:34:17;;;;;;;0.40;0.30;;;;;;;12.40;100.00;94755.50;5134806;27;20468;-50
2022/04/25 03:36:46;;;;;;;0.50;0.33;;;;;;;12.52;100.00;94771.00;5134741;27;20446;-50
2022/04/25 03:39:16;;;;;;;0.40;0.30;;;;;;;12.74;100.00;94763.13;5134908;27;20753;-50
2022/04/25 03:41:44;;;;;;;0.30;0.20;;;;;;;12.77;100.00;94776.59;5134433;27;20470;-51
2022/04/25 03:44:13;;;;;;;0.30;0.30;;;;;;;12.85;100.00;94774.34;5134334;27;20505;-50
2022/04/25 03:46:41;;;;;;;0.50;0.40;;;;;;;12.81;100.00;94776.00;5134351;27;20473;-50
2022/04/25 03:49:09;;;;;;;0.60;0.60;;;;;;;12.79;100.00;94778.19;5134289;27;20999;-50
2022/04/25 03:51:38;;;;;;;0.30;0.30;;;;;;;13.01;100.00;94767.63;5134349;27;20481;-50
2022/04/25 03:54:06;;;;;;;0.30;0.20;;;;;;;13.05;100.00;94773.94;5134152;27;20878;-50
2022/04/25 03:59:23;;;;;;;0.63;0.63;;;;;;;13.14;100.00;94774.84;5133980;27;20442;-50
2022/04/25 04:01:51;;;;;;;0.30;0.20;;;;;;;13.17;100.00;94779.56;5133930;27;20553;-50
2022/04/25 04:04:20;;;;;;;0.40;0.30;;;;;;;13.14;100.00;94782.81;5134320;27;21055;-50
2022/04/25 04:06:48;;;;;;;0.50;0.40;;;;;;;13.15;100.00;94781.75;5134154;27;20446;-50
2022/04/25 04:12:04;;;;;;;18.33;0.60;;;;;;;12.67;100.00;94726.28;5133831;27;20521;-50
2022/04/25 04:14:32;;;;;;;0.50;0.50;;;;;;;12.67;100.00;94784.00;5133796;27;20423;-50
2022/04/25 04:17:01;;;;;;;1.30;1.20;;;;;;;12.89;100.00;94784.09;5134050;27;20423;-50
2022/04/25 04:19:30;;;;;;;0.40;0.30;;;;;;;12.84;100.00;94756.81;5133791;27;20466;-50
2022/04/25 04:22:01;;;;;;;0.30;0.20;;;;;;;12.77;100.00;94783.00;5133596;27;21003;-51
2022/04/25 04:24:29;;;;;;;0.50;0.50;;;;;;;12.57;100.00;94782.28;5133725;27;20680;-51
2022/04/25 04:26:58;;;;;;;0.60;0.60;;;;;;;13.15;100.00;94781.75;5133641;27;20427;-50
2022/04/25 04:29:29;;;;;;;7.87;0.50;;;;;;;13.54;100.00;94781.94;5133626;27;20880;-50
2022/04/25 04:31:58;;;;;;;0.40;0.37;;;;;;;13.29;100.00;94771.84;5133838;27;20513;-50
2022/04/25 04:34:27;;;;;;;0.57;0.50;;;;;;;13.45;100.00;94773.13;5132896;27;20484;-50
2022/04/25 04:36:56;;;;;;;0.30;0.20;;;;;;;13.73;100.00;94771.94;5132925;27;20908;-51
2022/04/25 04:39:24;;;;;;;0.40;0.30;;;;;;;13.49;100.00;94767.97;5133703;27;20517;-50
2022/04/25 04:41:52;;;;;;;0.60;0.60;;;;;;;13.35;100.00;94771.47;5133326;27;20513;-50
2022/04/25 04:44:21;;;;;;;0.40;0.40;;;;;;;12.96;100.00;94786.34;5133118;27;20525;-50
2022/04/25 04:46:51;;;;;;;0.50;0.40;;;;;;;13.11;100.00;94775.44;5133253;27;20470;-50
2022/04/25 04:49:20;;;;;;;0.40;0.40;;;;;;;13.45;100.00;94767.78;5133541;27;20817;-50
2022/04/25 04:51:49;;;;;;;3.27;1.33;;;;;;;13.55;100.00;94761.44;5133442;27;20915;-50
2022/04/25 04:54:17;;;;;;;0.40;0.30;;;;;;;13.49;100.00;94771.41;5133115;27;20429;-50
2022/04/25 04:56:46;;;;;;;0.40;0.40;;;;;;;13.23;100.00;94757.09;5133060;27;20891;-50
2022/04/25 04:59:14;;;;;;;0.67;0.40;;;;;;;13.57;100.00;94777.91;5132956;27;20513;-49
2022/04/25 05:01:43;;;;;;;0.43;0.43;;;;;;;14.21;100.00;94784.66;5133014;27;20474;-49
2022/04/25 05:04:13;;;;;;;0.63;0.63;;;;;;;14.53;100.00;94779.06;5133006;27;20754;-50
2022/04/25 05:06:42;;;;;;;1.00;0.47;;;;;;;14.88;100.00;94786.09;5133305;27;20442;-50
2022/04/25 05:09:10;;;;;;;0.40;0.30;;;;;;;15.09;100.00;94784.47;5133144;27;20447;-50
2022/04/25 05:11:39;;;;;;;0.43;0.30;;;;;;;14.95;100.00;94743.75;5132904;27;20513;-50
2022/04/25 05:14:09;;;;;;;0.40;0.30;;;;;;;14.99;100.00;94792.75;5132877;27;20418;-49
2022/04/25 05:16:37;;;;;;;6.70;1.23;;;;;;;14.61;100.00;94784.44;5132851;27;20977;-50
2022/04/25 05:19:06;;;;;;;0.40;0.20;;;;;;;14.58;100.00;94781.59;5133057;27;20434;-50
2022/04/25 05:21:37;;;;;;;9.67;0.60;;;;;;;14.72;100.00;94794.84;5132631;28;20462;-50
2022/04/25 05:24:07;;;;;;;0.70;0.70;;;;;;;14.89;100.00;94745.00;5132604;28;20537;-51
2022/04/25 05:26:35;;;;;;;1.07;0.70;;;;;;;14.37;100.00;94785.88;5132638;28;20839;-51
2022/04/25 05:29:08;;;;;;;2.40;1.27;;;;;;;13.70;100.00;94793.06;5132613;28;20931;-50
2022/04/25 05:31:37;;;;;;;1.33;1.23;;;;;;;13.58;100.00;94790.94;5132746;28;20429;-50
2022/04/25 05:34:05;;;;;;;0.90;0.90;;;;;;;13.44;100.00;94792.03;5132908;28;20499;-50
2022/04/25 05:36:35;;;;;;;7.00;2.57;;;;;;;13.23;100.00;94792.47;5132854;28;20469;-50
2022/04/25 05:39:04;;;;;;;0.80;0.73;;;;;;;13.36;100.00;94794.31;5132486;28;20488;-50
2022/04/25 05:41:33;;;;;;;0.93;0.83;;;;;;;13.26;100.00;94793.72;5132590;28;20462;-50
2022/04/25 05:44:01;;;;;;;1.90;0.93;;;;;;;13.95;100.00;94787.94;5132317;28;20554;-50
2022/04/25 05:46:30;;;;;;;1.13;1.13;;;;;;;14.01;100.00;94778.72;5132525;28;20426;-50
2022/04/25 05:52:02;;;;;;;2.93;2.67;;;;;;;15.06;100.00;94786.94;5132424;28;20479;-51
2022/04/25 05:54:32;;;;;;;0.50;0.40;;;;;;;15.94;100.00;94774.22;5135053;27;20848;-50
2022/04/25 05:57:00;;;;;;;2.53;1.37;;;;;;;16.09;100.00;94776.41;5136430;27;20867;-50
2022/04/25 05:59:29;;;;;;;0.50;0.50;;;;;;;16.16;100.00;94777.50;5136445;27;20418;-50
2022/04/25 06:01:59;;;;;;;0.97;0.80;;;;;;;15.82;100.00;94778.31;5136358;27;20492;-49
2022/04/25 06:04:27;;;;;;;2.47;1.27;;;;;;;16.02;100.00;94787.56;5136268;27;20915;-50
2022/04/25 06:06:59;;;;;;;0.50;0.40;;;;;;;15.83;100.00;94790.56;5136311;27;20939;-50
2022/04/25 06:09:27;;;;;;;5.00;1.00;;;;;;;15.92;100.00;94792.44;5136259;27;20509;-49
2022/04/25 06:11:56;;;;;;;1.90;1.80;;;;;;;15.69;100.00;94799.81;5136162;27;20430;-49
2022/04/25 06:14:24;;;;;;;2.00;1.30;;;;;;;16.19;100.00;94787.53;5136412;27;20461;-50
2022/04/25 06:16:53;;;;;;;0.40;0.30;;;;;;;16.51;100.00;94800.41;5136493;27;20468;-51
2022/04/25 06:19:21;;;;;;;0.40;0.33;;;;;;;16.70;100.00;94792.03;5136382;27;20928;-50
2022/04/25 06:21:50;;;;;;;1.53;1.43;;;;;;;16.70;100.00;94784.00;5135841;27;20488;-50
2022/04/25 06:24:20;;;;;;;0.43;0.33;;;;;;;16.32;100.00;94724.28;5136339;27;20423;-50
2022/04/25 06:26:49;;;;;;;0.50;0.30;;;;;;;16.40;100.00;94787.66;5135886;27;20996;-51
2022/04/25 06:29:18;;;;;;;1.23;1.23;;;;;;;17.17;95.54;94784.75;5135797;27;20432;-50
2022/04/25 06:31:46;;;;;;;0.70;0.70;;;;;;;17.94;90.26;94784.25;5135811;27;20473;-50
2022/04/25 06:34:14;;;;;;;0.50;0.43;;;;;;;17.80;86.83;94785.66;5136104;27;20425;-50
2022/04/25 06:36:43;;;;;;;3.70;0.73;;;;;;;17.71;88.55;94783.81;5135673;27;20491;-50
2022/04/25 06:39:11;;;;;;;0.60;0.57;;;;;;;18.28;86.09;94767.09;5135923;27;20422;-50
2022/04/25 06:41:41;;;;;;;0.60;0.60;;;;;;;18.43;86.65;94769.16;5135794;27;20906;-49
2022/04/25 06:44:09;;;;;;;0.40;0.30;;;;;;;18.23;82.42;94719.00;5135207;27;20955;-49
2022/04/25 06:46:38;;;;;;;1.50;1.07;;;;;;;18.41;82.90;94763.34;5135362;27;20487;-51
2022/04/25 06:49:23;;;;;;;0.60;0.40;;;;;;;19.55;77.08;94765.94;5134581;27;20506;-51
2022/04/25 06:51:53;;;;;;;5.07;1.53;;;;;;;19.71;70.21;94766.78;5135347;27;20432;-52
2022/04/25 06:54:22;;;;;;;1.20;1.00;;;;;;;19.61;72.96;94768.03;5135269;27;20430;-52
2022/04/25 06:56:52;;;;;;;2.00;1.03;;;;;;;20.26;65.69;94766.84;5135170;27;20840;-52
2022/04/25 06:59:21;;;;;;;1.30;1.20;;;;;;;20.37;67.22;94753.69;5135188;27;20466;-53
2022/04/25 07:01:51;;;;;;;1.07;0.93;;;;;;;20.51;61.03;94758.66;5135111;27;20560;-52
2022/04/25 07:04:20;;;;;;;0.70;0.63;;;;;;;21.17;64.80;94753.44;5135096;27;20429;-53
2022/04/25 07:06:48;;;;;;;0.97;0.60;;;;;;;21.47;57.15;94765.28;5135177;27;20503;-53
2022/04/25 07:09:18;;;;;;;0.70;0.50;;;;;;;21.84;50.41;94750.31;5135029;27;20428;-54
2022/04/25 07:11:47;;;;;;;0.73;0.73;;;;;;;22.43;48.78;94731.09;5135249;27;20461;-54
2022/04/25 07:14:18;;;;;;;0.70;0.70;;;;;;;22.70;48.17;94694.94;5134871;27;20438;-55
2022/04/25 07:16:49;;;;;;;0.50;0.37;;;;;;;23.47;46.64;94745.22;5135149;27;20863;-54
2022/04/25 07:19:22;;;;;;;0.40;0.30;;;;;;;22.54;48.74;94742.84;5134787;27;20430;-55
2022/04/25 07:30:10;;;;;;;0.50;0.30;;;;;;;24.44;42.57;94739.53;5134741;27;20459;-56
2022/04/25 07:32:40;;;;;;;0.40;0.30;;;;;;;24.13;42.76;94741.88;5134865;27;20450;-55
2022/04/25 07:35:09;;;;;;;1.13;1.13;;;;;;;24.28;45.41;94736.28;5134429;27;20509;-55
2022/04/25 07:37:38;;;;;;;1.43;1.33;;;;;;;24.28;43.75;94730.84;5134362;27;20579;-55
2022/04/25 07:40:08;;;;;;;0.50;0.40;;;;;;;24.17;42.85;94734.56;5134322;27;20483;-55
2022/04/25 07:42:38;;;;;;;0.60;0.53;;;;;;;24.62;41.72;94726.16;5116416;27;20583;-55
2022/04/25 07:45:07;;;;;;;1.00;0.50;;;;;;;25.15;41.98;94713.88;5134621;27;20427;-56
2022/04/25 07:47:39;;;;;;;2.63;0.40;;;;;;;24.83;41.37;94722.91;5134369;27;20426;-56
2022/04/25 07:50:08;;;;;;;0.50;0.30;;;;;;;25.16;40.89;94710.03;5133998;27;20476;-57
2022/04/25 07:52:37;;;;;;;2.00;0.50;;;;;;;25.36;40.09;94707.84;5134037;27;20491;-55
2022/04/25 07:55:07;;;;;;;0.60;0.60;;;;;;;25.50;42.26;94707.19;5134122;27;20469;-56
2022/04/25 07:57:36;;;;;;;0.70;0.63;;;;;;;23.92;42.72;94707.16;5134334;27;20435;-55
2022/04/25 08:00:07;;;;;;;1.57;0.40;;;;;;;23.85;42.21;94702.47;5133641;27;20457;-54
2022/04/25 08:02:37;;;;;;;2.40;0.53;;;;;;;23.85;43.14;94697.03;5133871;27;20561;-57
2022/04/25 08:05:06;;;;;;;2.10;0.63;;;;;;;24.39;40.93;94684.91;5134235;27;20414;-54
2022/04/25 08:07:36;;;;;;;0.60;0.40;;;;;;;24.37;40.84;94689.91;5134059;27;20488;-55
2022/04/25 08:10:05;;;;;;;0.40;0.30;;;;;;;24.92;42.09;94688.91;5133380;27;20513;-55
2022/04/25 08:18:06;;;;;;;0.50;0.40;;;;;;;25.57;39.43;94691.72;5133329;27;20472;-56
2022/04/25 08:20:37;;;;;;;7.50;0.50;;;;;;;25.82;41.00;94681.00;5134046;27;20414;-58
2022/04/25 08:23:10;;;;;;;1.53;0.30;;;;;;;25.30;38.12;94678.75;5133729;27;20869;-58
2022/04/25 08:25:39;;;;;;;0.50;0.50;;;;;;;24.05;40.73;94567.72;5133971;27;20418;-58
2022/04/25 08:28:08;;;;;;;0.43;0.40;;;;;;;25.24;40.34;94676.38;5133565;27;20915;-58
2022/04/25 08:30:36;;;;;;;0.60;0.60;;;;;;;25.26;39.93;94670.56;5133857;27;20501;-58
2022/04/25 08:33:08;;;;;;;0.50;0.40;;;;;;;26.15;38.92;94666.41;5133771;27;20832;-60
2022/04/25 08:35:36;;;;;;;0.53;0.43;;;;;;;25.42;38.89;94640.44;5133501;27;20446;-58
2022/04/25 08:38:05;;;;;;;1.03;1.03;;;;;;;25.07;38.69;94662.69;5133154;27;20426;-59
2022/04/25 08:40:34;;;;;;;0.50;0.30;;;;;;;26.02;39.74;94646.16;5133249;27;20514;-58
2022/04/25 08:43:04;;;;;;;0.73;0.40;;;;;;;26.50;37.94;94647.47;5133225;27;20486;-58
2022/04/25 08:45:34;;;;;;;0.60;0.60;;;;;;;26.97;38.10;94657.22;5133086;27;20485;-58
2022/04/25 08:48:03;;;;;;;3.83;1.10;;;;;;;25.48;38.82;94655.22;5133015;27;20492;-58
2022/04/25 08:50:33;;;;;;;1.17;0.40;;;;;;;25.11;39.48;94650.72;5132951;27;20430;-58
2022/04/25 08:53:02;;;;;;;0.90;0.50;;;;;;;25.14;39.10;94647.25;5132580;27;20838;-59
2022/04/25 08:55:30;;;;;;;0.80;0.80;;;;;;;24.92;40.09;94642.81;5132679;27;20431;-58
2022/04/25 08:58:00;;;;;;;0.50;0.40;;;;;;;26.55;38.76;94641.66;5132675;27;20435;-59
2022/04/25 09:00:28;;;;;;;0.30;0.20;;;;;;;26.84;38.07;94645.97;5132983;27;20458;-58
2022/04/25 09:02:57;;;;;;;0.87;0.50;;;;;;;26.14;37.36;94634.97;5132663;27;21078;-59
2022/04/25 09:05:27;;;;;;;2.63;1.13;;;;;;;25.10;39.86;94638.31;5133098;27;20476;-59
2022/04/25 09:07:57;;;;;;;0.97;0.97;;;;;;;26.76;39.62;94640.91;5132994;27;20462;-59
2022/04/25 09:10:28;;;;;;;0.40;0.40;;;;;;;27.03;37.30;94631.19;5133094;27;20513;-58
2022/04/25 09:12:58;;;;;;;7.83;0.40;;;;;;;25.67;39.06;94628.59;5132887;27;20458;-59
2022/04/25 09:15:27;;;;;;;0.40;0.30;;;;;;;26.84;38.45;94623.44;5132716;27;20462;-59
2022/04/25 09:17:57;;;;;;;1.50;1.33;;;;;;;26.68;38.36;94544.19;5132712;27;20513;-59
2022/04/25 09:20:26;;;;;;;0.80;0.80;;;;;;;27.28;37.22;94623.78;5132827;27;20462;-59
2022/04/25 09:22:58;;;;;;;1.03;0.40;;;;;;;27.53;37.36;94610.91;5132640;28;20497;-59
2022/04/25 09:25:27;;;;;;;0.40;0.30;;;;;;;27.39;37.42;94618.34;5132628;28;20826;-59
2022/04/25 09:28:15;;;;;;;2.97;0.73;;;;;;;28.34;37.40;94607.03;5133661;27;20430;-59
2022/04/25 09:30:56;;;;;;;0.87;0.87;;;;;;;28.54;35.26;94599.16;5137283;27;20842;-57
2022/04/25 09:33:25;;;;;;;0.40;0.30;;;;;;;29.07;36.66;94590.53;5136965;27;20475;-58
2022/04/25 09:35:58;;;;;;;0.63;0.50;;;;;;;28.66;34.36;94591.28;5137001;27;20426;-58
2022/04/25 09:38:32;;;;;;;0.80;0.50;;;;;;;27.63;36.25;94593.75;5136874;27;20426;-59
2022/04/25 09:41:01;;;;;;;1.80;0.60;;;;;;;29.34;35.61;94589.50;5136915;27;20425;-58
2022/04/25 09:43:31;;;;;;;1.30;0.40;;;;;;;28.94;34.73;94584.81;5136326;27;20525;-58
2022/04/25 09:46:01;;;;;;;0.40;0.30;;;;;;;28.65;34.80;94584.25;5135943;27;20914;-58
2022/04/25 09:48:29;;;;;;;2.30;0.40;;;;;;;27.83;35.45;94572.28;5136833;27;20427;-59
2022/04/25 09:51:02;;;;;;;0.40;0.40;;;;;;;27.78;34.00;94564.50;5136737;27;20422;-58
2022/04/25 09:53:52;;;;;;;0.87;0.33;;;;;;;29.84;31.77;94576.06;5136653;27;20434;-55
2022/04/25 09:56:22;;;;;;;0.80;0.77;;;;;;;29.71;31.35;94566.06;5137058;27;20426;-55
2022/04/25 09:59:00;;;;;;;2.40;1.80;;;;;;;29.51;27.34;94557.72;5136721;27;20935;-57
2022/04/25 10:01:29;;;;;;;1.37;1.27;;;;;;;29.59;26.31;94561.91;5136638;27;20430;-56
2022/04/25 10:03:59;;;;;;;0.30;0.30;;;;;;;30.41;26.32;94569.84;5136644;27;20466;-56
2022/04/25 10:06:32;;;;;;;1.80;0.80;;;;;;;30.09;22.02;94560.13;5136723;27;20441;-56
2022/04/25 10:09:04;;;;;;;5.03;1.70;;;;;;;29.69;21.00;94558.28;5136338;27;20848;-56
2022/04/25 10:11:35;;;;;;;1.10;1.10;;;;;;;28.39;21.04;94540.44;5136146;27;20464;-56
2022/04/25 10:14:04;;;;;;;0.60;0.50;;;;;;;29.33;21.25;94552.47;5136407;27;20483;-57
2022/04/25 10:16:34;;;;;;;0.60;0.43;;;;;;;30.79;21.67;94550.06;5136093;27;20903;-56
2022/04/25 10:19:03;;;;;;;2.43;1.20;;;;;;;31.26;21.07;94545.34;5135918;27;20418;-56
2022/04/25 10:21:32;;;;;;;7.83;0.80;;;;;;;31.30;20.45;94529.63;5135691;27;20487;-55
2022/04/25 10:24:02;;;;;;;3.67;1.60;;;;;;;30.33;19.28;94552.75;5135572;27;20471;-55
2022/04/25 10:26:31;;;;;;;11.50;0.63;;;;;;;30.71;20.07;94556.84;5135780;27;20433;-55
2022/04/25 10:29:08;;;;;;;1.03;0.93;;;;;;;30.57;20.06;94559.81;5135658;27;20919;-55
2022/04/25 10:31:41;;;;;;;0.80;0.57;;;;;;;31.53;20.06;94552.69;5135700;27;20425;-55
2022/04/25 10:34:14;;;;;;;1.40;1.30;;;;;;;31.07;20.26;94550.81;5135425;27;20426;-55
2022/04/25 10:36:45;;;;;;;1.60;0.97;;;;;;;29.85;19.35;94536.66;5135628;27;20433;-56
2022/04/25 10:39:16;;;;;;;0.83;0.73;;;;;;;29.17;20.03;94541.28;5135277;27;20482;-56
2022/04/25 10:44:53;;;;;;;10.70;0.50;;;;;;;30.03;19.42;94539.88;5135348;27;20516;-56
2022/04/25 10:47:24;;;;;;;0.77;0.77;;;;;;;30.08;19.35;94538.69;5134933;27;20777;-62
2022/04/25 10:50:08;;;;;;;1.83;1.13;;;;;;;29.84;19.54;94548.75;5136524;27;20867;-57
2022/04/25 10:52:54;;;;;;;2.63;0.97;;;;;;;29.13;19.83;94505.09;5135886;27;20427;-57
2022/04/25 10:55:33;;;;;;;0.60;0.53;;;;;;;30.76;20.08;94528.25;5135482;27;20951;-55
2022/04/25 10:58:18;;;;;;;0.83;0.40;;;;;;;31.35;20.02;94531.09;5135726;27;20434;-55
2022/04/25 11:00:52;;;;;;;20.13;1.50;;;;;;;30.84;19.35;94540.59;5134870;27;20522;-54
2022/04/25 11:03:24;;;;;;;9.07;2.33;;;;;;;30.03;20.14;94548.09;5135516;27;20479;-55
2022/04/25 11:05:54;;;;;;;0.53;0.30;;;;;;;29.68;20.04;94531.38;5135219;27;20430;-55
2022/04/25 11:08:28;;;;;;;0.30;0.20;;;;;;;30.69;19.59;94537.34;5135168;27;20450;-56
2022/04/25 11:11:03;;;;;;;2.00;1.17;;;;;;;31.22;20.87;94520.00;5135183;27;20422;-55
2022/04/25 11:13:34;;;;;;;1.23;0.60;;;;;;;29.35;19.19;94522.00;5135292;27;20872;-56
2022/04/25 11:16:16;;;;;;;8.27;0.40;;;;;;;29.08;19.26;94532.03;5135192;27;20517;-57
2022/04/25 11:18:45;;;;;;;5.20;0.97;;;;;;;30.36;19.56;94524.59;5134767;27;20422;-56
2022/04/25 11:21:16;;;;;;;0.40;0.30;;;;;;;30.68;20.32;94529.56;5135131;27;20457;-55
2022/04/25 11:23:49;;;;;;;6.23;0.50;;;;;;;28.88;21.16;94542.78;5134789;27;20431;-55
2022/04/25 11:26:56;;;;;;;5.33;0.67;;;;;;;28.89;21.65;94520.53;5135004;27;20446;-56
2022/04/25 11:29:26;;;;;;;0.30;0.30;;;;;;;29.01;20.76;94524.72;5121148;27;20840;-56
2022/04/25 11:32:37;;;;;;;4.33;0.40;;;;;;;29.00;20.20;94528.59;5135187;27;20483;-55
2022/04/25 11:35:06;;;;;;;1.57;0.90;;;;;;;29.41;20.04;94454.88;5075338;27;20501;-55
2022/04/25 11:37:36;;;;;;;3.80;0.63;;;;;;;29.70;20.07;94461.50;5134461;27;20468;-56
2022/04/25 11:40:06;;;;;;;0.40;0.40;;;;;;;29.30;20.06;94525.97;5134487;27;21001;-55
2022/04/25 11:42:36;;;;;;;2.00;0.77;;;;;;;30.20;17.98;94532.63;5134326;27;20888;-55
2022/04/25 11:45:08;;;;;;;3.27;1.67;;;;;;;29.21;17.87;94512.03;5134357;27;20463;-55
2022/04/25 11:47:36;;;;;;;8.30;0.43;;;;;;;29.60;19.43;94522.47;5134501;27;20529;-55
2022/04/25 11:50:06;;;;;;;0.60;0.60;;;;;;;30.04;18.85;94495.00;5134479;27;20471;-54
2022/04/25 11:52:35;;;;;;;0.63;0.37;;;;;;;30.01;19.86;94527.81;5133668;27;20469;-54
2022/04/25 11:55:04;;;;;;;0.80;0.80;;;;;;;28.56;20.47;94518.50;5134715;27;20422;-54
2022/04/25 11:57:39;;;;;;;1.67;1.57;;;;;;;28.69;19.19;94507.91;5134308;27;20522;-55
2022/04/25 12:00:12;;;;;;;0.40;0.30;;;;;;;28.94;18.88;94520.09;5134230;27;20418;-55
2022/04/25 12:02:40;;;;;;;0.40;0.30;;;;;;;28.84;20.69;94499.16;5134051;27;20518;-54
2022/04/25 12:05:10;;;;;;;0.50;0.30;;;;;;;29.45;17.71;94508.25;5133839;27;20553;-55
2022/04/25 12:15:34;;;;;;;0.57;0.43;;;;;;;30.11;19.11;94524.94;5133854;27;20426;-55
2022/04/25 12:16:07;;;;;;;0.40;0.40;;;;;;;30.31;19.21;94492.22;5133712;27;20491;-55